createdAt,value
2022-08-05T00:02:27.601Z,20.77
2022-08-05T00:04:56.122Z,20.79
2022-08-05T00:07:59.047Z,20.83
2022-08-05T00:10:11.151Z,20.85
2022-08-05T00:12:56.086Z,20.85
2022-08-05T00:15:56.074Z,20.77
2022-08-05T00:18:21.296Z,20.69
2022-08-05T00:20:48.973Z,20.65
2022-08-05T00:23:16.046Z,20.69
2022-08-05T00:25:45.536Z,20.72
2022-08-05T00:28:13.439Z,20.73
2022-08-05T00:30:41.075Z,20.67
2022-08-05T00:33:15.718Z,20.61
2022-08-05T00:36:15.234Z,20.52
2022-08-05T00:38:45.377Z,20.40
2022-08-05T00:41:13.043Z,20.26
2022-08-05T00:43:47.018Z,20.17
2022-08-05T00:46:16.622Z,20.01
2022-08-05T00:48:50.732Z,19.97
2022-08-05T00:51:50.586Z,19.95
2022-08-05T00:54:06.125Z,19.92
2022-08-05T00:56:33.045Z,19.90
2022-08-05T00:59:00.192Z,19.87
2022-08-05T01:01:48.192Z,19.82
2022-08-05T01:04:15.719Z,19.81
2022-08-05T01:06:43.788Z,19.83
2022-08-05T01:09:15.552Z,19.89
2022-08-05T01:11:49.128Z,19.95
2022-08-05T01:14:28.426Z,20.00
2022-08-05T01:17:25.530Z,20.03
2022-08-05T01:20:01.356Z,20.09
2022-08-05T01:22:50.439Z,20.10
2022-08-05T01:25:53.260Z,19.96
2022-08-05T01:28:26.738Z,19.79
2022-08-05T01:31:04.871Z,19.64
2022-08-05T01:33:35.483Z,19.59
2022-08-05T01:36:07.214Z,19.54
2022-08-05T01:38:40.197Z,19.45
2022-08-05T01:41:08.165Z,19.36
2022-08-05T01:43:35.963Z,19.28
2022-08-05T01:46:07.160Z,19.25
2022-08-05T01:48:44.186Z,19.25
2022-08-05T01:51:13.096Z,19.23
2022-08-05T01:53:57.534Z,19.16
2022-08-05T01:58:13.193Z,19.10
2022-08-05T01:59:17.263Z,19.03
2022-08-05T02:01:47.762Z,19.00
2022-08-05T02:04:17.182Z,19.01
2022-08-05T02:06:45.016Z,19.00
2022-08-05T02:09:12.217Z,19.04
2022-08-05T02:11:52.688Z,19.04
2022-08-05T02:14:29.110Z,19.03
2022-08-05T02:17:16.819Z,19.00
2022-08-05T02:20:01.990Z,19.00
2022-08-05T02:22:31.772Z,18.93
2022-08-05T02:25:02.655Z,18.90
2022-08-05T02:27:57.957Z,18.93
2022-08-05T02:30:18.128Z,18.91
2022-08-05T02:32:48.193Z,18.86
2022-08-05T02:35:18.983Z,18.83
2022-08-05T02:37:54.096Z,18.80
2022-08-05T02:40:21.615Z,18.76
2022-08-05T02:42:52.978Z,18.70
2022-08-05T02:45:24.232Z,18.66
2022-08-05T02:47:58.645Z,18.63
2022-08-05T02:50:43.608Z,18.56
2022-08-05T02:53:15.946Z,18.50
2022-08-05T02:55:54.114Z,18.34
2022-08-05T02:58:23.162Z,18.27
2022-08-05T03:00:55.462Z,18.19
2022-08-05T03:03:23.524Z,18.26
2022-08-05T03:06:53.881Z,18.30
2022-08-05T03:08:39.054Z,18.35
2022-08-05T03:11:55.323Z,18.42
2022-08-05T03:14:08.068Z,18.47
2022-08-05T03:16:35.695Z,18.44
2022-08-05T03:19:04.260Z,18.42
2022-08-05T03:21:41.573Z,18.42
2022-08-05T03:24:17.097Z,18.42
2022-08-05T03:26:43.992Z,18.49
2022-08-05T03:29:17.312Z,18.52
2022-08-05T03:31:56.652Z,18.50
2022-08-05T03:34:25.687Z,18.48
2022-08-05T03:36:53.993Z,18.48
2022-08-05T03:39:27.148Z,18.54
2022-08-05T03:41:56.308Z,18.60
2022-08-05T03:44:23.648Z,18.65
2022-08-05T03:46:50.642Z,18.68
2022-08-05T03:49:17.584Z,18.64
2022-08-05T03:52:38.456Z,18.64
2022-08-05T03:56:05.686Z,18.66
2022-08-05T03:57:51.046Z,18.68
2022-08-05T04:00:18.165Z,18.69
2022-08-05T04:02:51.956Z,18.77
2022-08-05T04:05:19.932Z,18.85
2022-08-05T04:07:58.575Z,18.89
2022-08-05T04:10:32.028Z,18.93
2022-08-05T04:12:59.224Z,19.01
2022-08-05T04:15:32.799Z,19.08
2022-08-05T04:18:06.669Z,19.09
2022-08-05T04:20:34.395Z,19.06
2022-08-05T04:23:02.245Z,18.98
2022-08-05T04:25:49.425Z,18.92
2022-08-05T04:28:17.983Z,18.87
2022-08-05T04:30:45.619Z,18.84
2022-08-05T04:33:12.782Z,18.85
2022-08-05T04:36:16.356Z,18.93
2022-08-05T04:38:39.735Z,19.05
2022-08-05T04:41:07.595Z,19.12
2022-08-05T04:43:37.739Z,19.18
2022-08-05T04:46:07.543Z,19.24
2022-08-05T04:48:34.532Z,19.25
2022-08-05T04:51:03.500Z,19.32
2022-08-05T04:53:38.627Z,19.42
2022-08-05T04:56:32.957Z,19.56
2022-08-05T04:58:55.767Z,19.71
2022-08-05T05:01:33.569Z,19.81
2022-08-05T05:04:01.056Z,19.88
2022-08-05T05:06:39.125Z,19.99
2022-08-05T05:09:14.164Z,20.10
2022-08-05T05:11:55.496Z,20.13
2022-08-05T05:14:27.983Z,20.19
2022-08-05T05:17:02.081Z,20.26
2022-08-05T05:19:36.394Z,20.29
2022-08-05T05:22:24.136Z,20.34
2022-08-05T05:24:57.795Z,20.38
2022-08-05T05:27:44.730Z,20.41
2022-08-05T05:30:31.357Z,20.34
2022-08-05T05:33:09.422Z,20.40
2022-08-05T05:35:44.049Z,20.49
2022-08-05T05:38:12.875Z,20.49
2022-08-05T05:40:47.936Z,20.51
2022-08-05T05:43:22.209Z,20.60
2022-08-05T05:45:55.210Z,20.70
2022-08-05T05:48:27.364Z,20.70
2022-08-05T05:50:54.782Z,20.74
2022-08-05T05:53:22.203Z,20.84
2022-08-05T05:55:51.605Z,20.90
2022-08-05T05:58:30.349Z,21.01
2022-08-05T06:01:02.537Z,21.07
2022-08-05T06:04:00.816Z,21.19
2022-08-05T06:06:27.953Z,21.42
2022-08-05T06:09:00.028Z,21.52
2022-08-05T06:11:29.045Z,21.61
2022-08-05T06:13:56.257Z,21.66
2022-08-05T06:16:36.665Z,21.76
2022-08-05T06:19:05.626Z,21.86
2022-08-05T06:21:36.769Z,21.90
2022-08-05T06:24:11.701Z,21.86
2022-08-05T06:26:39.449Z,21.92
2022-08-05T06:29:43.142Z,22.07
2022-08-05T06:31:59.958Z,22.23
2022-08-05T06:34:27.848Z,22.29
2022-08-05T06:36:58.160Z,22.38
2022-08-05T06:39:27.020Z,22.51
2022-08-05T06:41:54.876Z,22.62
2022-08-05T06:44:22.010Z,22.73
2022-08-05T06:46:50.813Z,22.83
2022-08-05T06:49:18.814Z,22.92
2022-08-05T06:51:48.593Z,22.98
2022-08-05T06:54:18.151Z,23.05
2022-08-05T06:56:54.448Z,23.18
2022-08-05T06:59:22.064Z,23.26
2022-08-05T07:01:52.926Z,23.34
2022-08-05T07:04:20.301Z,23.51
2022-08-05T07:06:47.057Z,23.60
2022-08-05T07:09:17.446Z,23.71
2022-08-05T07:11:51.427Z,23.85
2022-08-05T07:14:37.263Z,23.96
2022-08-05T07:17:58.406Z,24.10
2022-08-05T07:22:42.168Z,24.19
2022-08-05T07:25:22.869Z,24.25
2022-08-05T07:28:01.480Z,24.35
2022-08-05T07:30:38.537Z,24.48
2022-08-05T07:33:09.753Z,24.62
2022-08-05T07:36:04.335Z,24.75
2022-08-05T07:38:34.420Z,24.77
2022-08-05T07:41:35.215Z,24.89
2022-08-05T07:43:57.196Z,25.03
2022-08-05T07:46:28.014Z,25.11
2022-08-05T07:49:02.125Z,25.15
2022-08-05T07:51:36.917Z,25.25
2022-08-05T07:54:05.677Z,25.41
2022-08-05T07:57:01.412Z,25.60
2022-08-05T07:59:31.057Z,25.73
2022-08-05T08:02:15.915Z,25.78
2022-08-05T08:04:45.290Z,25.89
2022-08-05T08:07:13.035Z,25.97
2022-08-05T08:09:40.078Z,26.05
2022-08-05T08:12:15.915Z,26.11
2022-08-05T08:14:54.241Z,26.19
2022-08-05T08:17:21.784Z,26.27
2022-08-05T08:20:10.331Z,26.37
2022-08-05T08:22:36.128Z,26.52
2022-08-05T08:25:03.918Z,26.72
2022-08-05T08:27:47.588Z,26.87
2022-08-05T08:30:30.093Z,26.99
2022-08-05T08:33:02.701Z,27.14
2022-08-05T08:35:35.255Z,27.24
2022-08-05T08:38:08.650Z,27.40
2022-08-05T08:40:50.452Z,27.56
2022-08-05T08:45:01.585Z,27.68
2022-08-05T08:46:09.993Z,27.85
2022-08-05T08:49:07.841Z,27.97
2022-08-05T08:52:03.798Z,28.09
2022-08-05T08:54:19.561Z,28.33
2022-08-05T08:56:47.767Z,28.52
2022-08-05T08:59:19.420Z,28.62
2022-08-05T09:01:57.438Z,28.60
2022-08-05T09:04:30.455Z,28.71
2022-08-05T09:06:57.658Z,28.84
2022-08-05T09:09:26.099Z,28.95
2022-08-05T09:12:15.304Z,29.07
2022-08-05T09:14:58.583Z,29.01
2022-08-05T09:17:40.606Z,29.11
2022-08-05T09:20:11.053Z,29.25
2022-08-05T09:22:56.397Z,29.48
2022-08-05T09:26:03.232Z,29.73
2022-08-05T09:28:21.545Z,29.97
2022-08-05T09:30:55.587Z,30.07
2022-08-05T09:33:23.710Z,30.11
2022-08-05T09:36:11.741Z,30.06
2022-08-05T09:38:56.792Z,30.25
2022-08-05T09:41:24.280Z,30.41
2022-08-05T09:43:52.811Z,30.55
2022-08-05T09:46:32.358Z,30.75
2022-08-05T09:49:07.820Z,30.92
2022-08-05T09:51:49.450Z,31.06
2022-08-05T09:54:21.429Z,31.14
2022-08-05T09:56:56.112Z,31.30
2022-08-05T09:59:27.701Z,31.39
2022-08-05T10:01:57.810Z,31.54
2022-08-05T10:04:35.471Z,31.67
2022-08-05T10:07:19.499Z,31.68
2022-08-05T10:10:15.285Z,32.02
2022-08-05T10:12:49.955Z,32.33
2022-08-05T10:15:22.952Z,32.42
2022-08-05T10:18:27.618Z,32.60
2022-08-05T10:20:57.434Z,32.89
2022-08-05T10:23:56.089Z,33.19
2022-08-05T10:26:31.690Z,33.36
2022-08-05T10:28:59.933Z,33.44
2022-08-05T10:32:54.908Z,33.35
2022-08-05T10:34:14.330Z,33.61
2022-08-05T10:36:44.307Z,33.99
2022-08-05T10:39:25.243Z,34.36
2022-08-05T10:42:15.759Z,34.64
2022-08-05T10:44:46.390Z,34.95
2022-08-05T10:47:26.930Z,35.15
2022-08-05T10:50:36.213Z,35.21
2022-08-05T10:53:01.704Z,35.25
2022-08-05T10:55:38.473Z,35.53
2022-08-05T10:58:20.741Z,35.90
2022-08-05T11:00:55.195Z,36.29
2022-08-05T11:03:29.958Z,36.30
2022-08-05T11:06:31.214Z,36.18
2022-08-05T11:09:39.255Z,35.87
2022-08-05T11:12:45.390Z,36.14
2022-08-05T11:16:01.193Z,36.74
2022-08-05T11:18:30.216Z,37.35
2022-08-05T11:21:00.806Z,37.42
2022-08-05T11:24:02.765Z,37.71
2022-08-05T11:26:33.383Z,37.90
2022-08-05T11:29:13.498Z,37.25
2022-08-05T11:31:58.023Z,36.41
2022-08-05T11:34:37.922Z,35.63
2022-08-05T11:38:14.259Z,34.92
2022-08-05T11:39:55.402Z,35.48
2022-08-05T11:42:28.561Z,36.35
2022-08-05T11:45:00.951Z,36.57
2022-08-05T11:47:49.294Z,36.72
2022-08-05T11:50:16.230Z,36.50
2022-08-05T11:52:44.135Z,36.07
2022-08-05T11:55:13.643Z,35.78
2022-08-05T11:58:09.742Z,35.45
2022-08-05T12:00:32.605Z,35.33
2022-08-05T12:03:29.412Z,35.29
2022-08-05T12:06:03.397Z,35.00
2022-08-05T12:08:39.908Z,35.78
2022-08-05T12:11:28.321Z,36.91
2022-08-05T12:14:08.644Z,37.76
2022-08-05T12:16:41.400Z,38.20
2022-08-05T12:20:27.526Z,38.43
2022-08-05T12:22:01.117Z,38.57
2022-08-05T12:24:28.333Z,38.90
2022-08-05T12:26:57.044Z,39.20
2022-08-05T12:29:25.730Z,38.44
2022-08-05T12:32:02.076Z,37.74
2022-08-05T12:34:31.475Z,37.23
2022-08-05T12:37:07.702Z,36.93
2022-08-05T12:39:37.118Z,36.85
2022-08-05T12:42:08.436Z,36.75
2022-08-05T12:44:35.648Z,36.69
2022-08-05T12:47:02.917Z,36.58
2022-08-05T12:50:03.483Z,36.06
2022-08-05T12:52:38.516Z,35.73
2022-08-05T12:55:26.543Z,35.88
2022-08-05T12:58:51.004Z,36.10
2022-08-05T13:02:02.062Z,36.92
2022-08-05T13:03:34.538Z,37.65
2022-08-05T13:06:12.863Z,37.58
2022-08-05T13:08:40.136Z,37.66
2022-08-05T13:11:08.143Z,38.21
2022-08-05T13:14:05.169Z,38.61
2022-08-05T13:16:27.757Z,38.94
2022-08-05T13:18:58.423Z,39.10
2022-08-05T13:21:28.612Z,39.03
2022-08-05T13:24:05.418Z,39.13
2022-08-05T13:26:32.528Z,39.67
2022-08-05T13:28:59.546Z,40.01
2022-08-05T13:32:03.311Z,40.25
2022-08-05T13:34:22.026Z,40.27
2022-08-05T13:36:52.625Z,40.11
2022-08-05T13:40:13.080Z,40.19
2022-08-05T13:42:06.550Z,39.94
2022-08-05T13:44:34.614Z,39.84
2022-08-05T13:47:08.630Z,40.27
2022-08-05T13:49:36.365Z,40.72
2022-08-05T13:52:16.806Z,40.84
2022-08-05T13:54:43.642Z,40.82
2022-08-05T13:57:20.753Z,41.00
2022-08-05T13:59:57.429Z,40.99
2022-08-05T14:02:29.698Z,41.29
2022-08-05T14:05:15.406Z,41.20
2022-08-05T14:08:03.233Z,41.48
2022-08-05T14:10:33.229Z,41.85
2022-08-05T14:13:00.272Z,41.95
2022-08-05T14:16:09.326Z,41.82
2022-08-05T14:18:18.467Z,41.31
2022-08-05T14:20:52.854Z,41.70
2022-08-05T14:23:24.620Z,41.73
2022-08-05T14:25:54.187Z,41.66
2022-08-05T14:28:27.083Z,41.65
2022-08-05T14:30:55.158Z,41.70
2022-08-05T14:33:22.652Z,41.85
2022-08-05T14:35:51.721Z,42.02
2022-08-05T14:38:32.426Z,41.69
2022-08-05T14:41:01.876Z,41.66
2022-08-05T14:43:58.767Z,41.31
2022-08-05T14:46:19.723Z,40.89
2022-08-05T14:48:49.937Z,40.96
2022-08-05T14:51:17.709Z,40.64
2022-08-05T14:53:45.328Z,40.18
2022-08-05T14:56:32.329Z,40.16
2022-08-05T14:58:59.101Z,40.74
2022-08-05T15:01:47.118Z,41.28
2022-08-05T15:04:14.846Z,41.57
2022-08-05T15:06:41.713Z,41.86
2022-08-05T15:09:16.122Z,42.05
2022-08-05T15:12:03.940Z,42.26
2022-08-05T15:14:34.854Z,42.06
2022-08-05T15:17:14.725Z,41.81
2022-08-05T15:19:57.006Z,41.74
2022-08-05T15:22:26.973Z,41.77
2022-08-05T15:24:55.422Z,42.01
2022-08-05T15:27:22.470Z,42.21
2022-08-05T15:29:54.250Z,42.35
2022-08-05T15:32:27.468Z,42.31
2022-08-05T15:34:56.686Z,42.32
2022-08-05T15:38:34.145Z,42.40
2022-08-05T15:41:01.990Z,42.33
2022-08-05T15:43:09.333Z,42.12
2022-08-05T15:45:45.661Z,42.02
2022-08-05T15:48:14.408Z,42.05
2022-08-05T15:50:41.681Z,42.22
2022-08-05T15:53:12.494Z,42.42
2022-08-05T15:56:02.350Z,42.48
2022-08-05T15:58:28.413Z,42.39
2022-08-05T16:01:11.549Z,42.46
2022-08-05T16:03:43.003Z,42.59
2022-08-05T16:06:11.523Z,42.75
2022-08-05T16:08:38.844Z,42.86
2022-08-05T16:11:07.168Z,42.37
2022-08-05T16:13:35.348Z,42.42
2022-08-05T16:16:05.588Z,43.49
2022-08-05T16:18:35.449Z,44.75
2022-08-05T16:21:20.579Z,45.78
2022-08-05T16:24:06.451Z,45.84
2022-08-05T16:26:53.890Z,45.67
2022-08-05T16:29:24.575Z,46.02
2022-08-05T16:31:57.136Z,44.60
2022-08-05T16:34:25.577Z,42.72
2022-08-05T16:36:53.234Z,43.23
2022-08-05T16:39:21.042Z,43.40
2022-08-05T16:42:14.699Z,42.26
2022-08-05T16:44:35.154Z,40.98
2022-08-05T16:47:04.690Z,39.95
2022-08-05T16:49:31.603Z,39.12
2022-08-05T16:51:58.514Z,38.82
2022-08-05T16:54:31.844Z,39.63
2022-08-05T16:56:59.819Z,40.37
2022-08-05T16:59:27.892Z,40.35
2022-08-05T17:01:57.646Z,39.83
2022-08-05T17:04:27.289Z,38.99
2022-08-05T17:06:55.653Z,38.34
2022-08-05T17:09:27.229Z,37.51
2022-08-05T17:11:59.209Z,37.40
2022-08-05T17:14:37.587Z,37.42
2022-08-05T17:17:14.184Z,37.58
2022-08-05T17:19:45.393Z,37.14
2022-08-05T17:22:17.895Z,36.46
2022-08-05T17:24:51.398Z,35.85
2022-08-05T17:27:25.443Z,35.58
2022-08-05T17:29:59.734Z,35.60
2022-08-05T17:32:29.446Z,35.64
2022-08-05T17:34:58.286Z,35.55
2022-08-05T17:37:40.865Z,35.17
2022-08-05T17:40:13.352Z,34.70
2022-08-05T17:42:41.345Z,34.25
2022-08-05T17:45:20.825Z,33.81
2022-08-05T17:47:53.943Z,33.54
2022-08-05T17:50:29.470Z,33.33
2022-08-05T17:53:01.225Z,33.13
2022-08-05T17:55:38.022Z,32.95
2022-08-05T17:58:09.414Z,32.83
2022-08-05T18:00:36.778Z,32.64
2022-08-05T18:03:11.800Z,32.45
2022-08-05T18:05:53.705Z,32.29
2022-08-05T18:08:21.340Z,32.15
2022-08-05T18:10:48.211Z,31.94
2022-08-05T18:13:15.551Z,31.64
2022-08-05T18:15:42.838Z,31.41
2022-08-05T18:18:11.712Z,31.23
2022-08-05T18:20:39.029Z,31.01
2022-08-05T18:23:11.342Z,30.78
2022-08-05T18:25:45.355Z,30.55
2022-08-05T18:28:16.648Z,30.37
2022-08-05T18:30:45.054Z,30.20
2022-08-05T18:33:13.447Z,30.03
2022-08-05T18:36:00.937Z,29.66
2022-08-05T18:38:28.662Z,29.29
2022-08-05T18:41:53.539Z,29.14
2022-08-05T18:43:43.250Z,29.05
2022-08-05T18:46:20.231Z,28.97
2022-08-05T18:48:51.850Z,28.94
2022-08-05T18:52:04.882Z,28.92
2022-08-05T18:54:28.465Z,28.91
2022-08-05T18:57:01.824Z,28.83
2022-08-05T18:59:43.729Z,28.68
2022-08-05T19:02:26.720Z,28.63
2022-08-05T19:05:02.272Z,28.61
2022-08-05T19:07:45.394Z,28.62
2022-08-05T19:10:14.380Z,28.53
2022-08-05T19:12:41.570Z,28.47
2022-08-05T19:15:10.612Z,28.47
2022-08-05T19:18:08.571Z,28.55
2022-08-05T19:20:37.050Z,28.53
2022-08-05T19:23:08.696Z,28.52
2022-08-05T19:26:02.136Z,28.45
2022-08-05T19:28:29.907Z,28.40
2022-08-05T19:30:57.239Z,28.31
2022-08-05T19:33:35.064Z,28.18
2022-08-05T19:36:06.132Z,28.08
2022-08-05T19:38:35.910Z,27.72
2022-08-05T19:41:06.988Z,27.38
2022-08-05T19:44:06.256Z,27.17
2022-08-05T19:46:30.639Z,27.04
2022-08-05T19:49:07.019Z,26.93
2022-08-05T19:52:13.316Z,26.77
2022-08-05T19:54:31.143Z,26.61
2022-08-05T19:57:08.569Z,26.51
2022-08-05T19:59:54.820Z,26.41
2022-08-05T20:02:28.148Z,26.30
2022-08-05T20:04:59.019Z,26.27
2022-08-05T20:07:46.987Z,26.24
2022-08-05T20:10:14.618Z,26.17
2022-08-05T20:12:47.984Z,26.12
2022-08-05T20:15:47.761Z,25.99
2022-08-05T20:18:10.873Z,25.83
2022-08-05T20:20:55.187Z,25.73
2022-08-05T20:23:22.989Z,25.62
2022-08-05T20:25:52.273Z,25.44
2022-08-05T20:28:20.731Z,25.30
2022-08-05T20:30:49.479Z,25.22
2022-08-05T20:33:16.408Z,25.17
2022-08-05T20:35:45.676Z,25.12
2022-08-05T20:38:19.991Z,25.06
2022-08-05T20:40:50.373Z,24.98
2022-08-05T20:43:17.611Z,24.92
2022-08-05T20:46:06.850Z,24.90
2022-08-05T20:48:35.742Z,24.88
2022-08-05T20:51:08.083Z,24.92
2022-08-05T20:53:36.477Z,24.88
2022-08-05T20:56:08.777Z,24.93
2022-08-05T20:58:36.998Z,24.98
2022-08-05T21:01:04.565Z,24.95
2022-08-05T21:03:34.348Z,24.95
2022-08-05T21:06:02.082Z,24.89
2022-08-05T21:08:41.611Z,24.77
2022-08-05T21:11:12.652Z,24.73
2022-08-05T21:13:55.852Z,24.77
2022-08-05T21:16:30.202Z,24.75
2022-08-05T21:19:01.702Z,24.76
2022-08-05T21:21:39.063Z,24.75
2022-08-05T21:24:13.015Z,24.65
2022-08-05T21:26:41.208Z,24.51
2022-08-05T21:29:10.142Z,24.44
2022-08-05T21:31:41.598Z,24.41
2022-08-05T21:34:10.512Z,24.38
2022-08-05T21:36:38.075Z,24.41
2022-08-05T21:39:05.091Z,24.44
2022-08-05T21:41:35.521Z,24.47
2022-08-05T21:44:04.310Z,24.43
2022-08-05T21:46:34.951Z,24.32
2022-08-05T21:49:02.609Z,24.22
2022-08-05T21:52:22.459Z,24.16
2022-08-05T21:54:27.875Z,24.06
2022-08-05T21:57:21.564Z,23.92
2022-08-05T22:00:02.130Z,23.62
2022-08-05T22:02:39.538Z,23.42
2022-08-05T22:05:09.299Z,23.19
2022-08-05T22:07:40.410Z,23.09
2022-08-05T22:10:27.116Z,23.10
2022-08-05T22:12:58.858Z,23.12
2022-08-05T22:16:00.887Z,23.05
2022-08-05T22:18:14.545Z,22.90
2022-08-05T22:20:41.788Z,22.83
2022-08-05T22:24:02.382Z,22.83
2022-08-05T22:26:34.760Z,22.85
2022-08-05T22:29:02.415Z,22.85
2022-08-05T22:31:30.022Z,22.78
2022-08-05T22:34:01.172Z,22.78
2022-08-05T22:36:28.514Z,22.78
2022-08-05T22:38:56.685Z,22.88
2022-08-05T22:42:05.044Z,22.84
2022-08-05T22:44:11.871Z,22.80
2022-08-05T22:46:40.709Z,22.87
2022-08-05T22:49:12.168Z,22.90
2022-08-05T22:52:05.388Z,22.88
2022-08-05T22:54:35.442Z,22.77
2022-08-05T22:57:02.843Z,22.72
2022-08-05T22:59:46.582Z,22.70
2022-08-05T23:02:18.195Z,22.53
2022-08-05T23:04:51.142Z,22.39
2022-08-05T23:07:18.935Z,22.32
2022-08-05T23:09:56.993Z,22.35
2022-08-05T23:12:28.879Z,22.33
2022-08-05T23:14:56.128Z,22.32
2022-08-05T23:17:35.005Z,22.21
2022-08-05T23:20:16.440Z,22.16
2022-08-05T23:22:47.536Z,22.03
2022-08-05T23:25:17.663Z,21.92
2022-08-05T23:28:03.989Z,21.94
2022-08-05T23:30:40.451Z,22.04
2022-08-05T23:33:16.435Z,22.01
2022-08-05T23:35:49.327Z,21.68
2022-08-05T23:38:16.412Z,21.48
2022-08-05T23:40:49.589Z,21.44
2022-08-05T23:43:25.700Z,21.40
2022-08-05T23:46:04.020Z,21.41
2022-08-05T23:48:30.894Z,21.38
2022-08-05T23:50:58.656Z,21.35
2022-08-05T23:53:28.345Z,21.33
2022-08-05T23:56:13.171Z,21.32
2022-08-05T23:58:46.929Z,21.40
